Time;durP1;ratioP1;P1;durP2;ratioP2;P2;SDS_P1;SDS_P2;PMS_P1;PMS_P2;Temp;Humidity;BMP_temperature;BMP_pressure;BME280_temperature;BME280_humidity;BME280_pressure;Samples;Min_cycle;Max_cycle;Signal;HPM_P1;HPM_P2
2021/03/28 00:01:51;;;;;;;0.50;0.50;;;14.80;63.60;;;;;;4180985;28;20057;-45
2021/03/28 00:04:14;;;;;;;;;;;14.80;63.60;;;;;;4181235;28;20075;-45
2021/03/28 00:07:00;;;;;;;0.00;0.00;;;14.80;63.70;;;;;;4180892;28;20031;-44
2021/03/28 00:09:23;;;;;;;0.00;0.00;;;14.80;63.70;;;;;;4180851;28;20061;-43
2021/03/28 00:11:59;;;;;;;0.00;0.00;;;14.80;63.70;;;;;;4180845;28;20064;-44
2021/03/28 00:14:25;;;;;;;0.00;0.00;;;14.80;63.70;;;;;;4180411;28;20489;-47
2021/03/28 00:16:48;;;;;;;0.00;0.00;;;14.80;63.80;;;;;;4180673;28;20060;-48
2021/03/28 00:19:22;;;;;;;0.45;0.45;;;14.70;63.70;;;;;;4180552;28;20071;-48
2021/03/28 00:21:49;;;;;;;0.00;0.00;;;14.70;63.60;;;;;;4180478;28;20499;-45
2021/03/28 00:24:20;;;;;;;0.00;0.00;;;14.90;63.40;;;;;;4180377;28;20411;-45
2021/03/28 00:26:45;;;;;;;0.00;0.00;;;15.00;63.00;;;;;;4180504;28;20136;-48
2021/03/28 00:29:14;;;;;;;0.10;0.10;;;15.10;63.50;;;;;;4180367;28;20064;-47
2021/03/28 00:31:39;;;;;;;0.10;0.10;;;15.20;62.40;;;;;;4179278;28;20060;-46
2021/03/28 00:34:09;;;;;;;0.05;0.05;;;15.20;62.20;;;;;;4180347;28;20053;-44
2021/03/28 00:36:36;;;;;;;0.00;0.00;;;15.20;62.90;;;;;;4180354;28;20476;-44
2021/03/28 00:38:58;;;;;;;0.00;0.00;;;15.20;62.10;;;;;;4180180;28;20865;-47
2021/03/28 00:41:21;;;;;;;0.00;0.00;;;15.20;62.00;;;;;;4180154;28;20127;-46
2021/03/28 00:43:50;;;;;;;0.00;0.00;;;15.20;62.00;;;;;;4180137;28;20075;-44
2021/03/28 00:46:24;;;;;;;0.00;0.00;;;15.20;62.10;;;;;;4180076;28;20041;-46
2021/03/28 00:49:01;;;;;;;0.00;0.00;;;15.10;62.10;;;;;;4180111;28;20095;-45
2021/03/28 00:51:24;;;;;;;0.13;0.13;;;15.10;62.10;;;;;;4180073;28;20064;-43
2021/03/28 00:53:48;;;;;;;0.45;0.45;;;15.10;62.20;;;;;;4195088;28;20434;-43
2021/03/28 00:56:15;;;;;;;0.00;0.00;;;15.10;62.10;;;;;;4195349;28;20130;-44
2021/03/28 00:58:52;;;;;;;0.00;0.00;;;15.10;62.20;;;;;;4192317;28;20064;-46
2021/03/28 01:01:37;;;;;;;0.00;0.00;;;15.30;61.80;;;;;;4179906;28;20066;-45
2021/03/28 01:04:43;;;;;;;0.00;0.00;;;15.50;61.10;;;;;;4179828;28;20060;-48
2021/03/28 01:07:23;;;;;;;0.00;0.00;;;15.60;60.60;;;;;;4183822;28;20052;-47
2021/03/28 01:10:19;;;;;;;0.32;0.32;;;15.70;60.40;;;;;;4179600;28;20052;-45
2021/03/28 01:13:23;;;;;;;0.00;0.00;;;15.70;60.30;;;;;;4154835;28;20719;-44
2021/03/28 01:16:17;;;;;;;0.00;0.00;;;15.60;60.30;;;;;;4179640;28;20060;-44
2021/03/28 01:18:43;;;;;;;0.00;0.00;;;15.60;60.40;;;;;;4196101;28;20048;-44
2021/03/28 01:21:10;;;;;;;0.10;0.10;;;15.60;60.70;;;;;;4196148;28;20056;-46
2021/03/28 01:23:35;;;;;;;0.20;0.20;;;15.50;60.80;;;;;;4194686;28;20076;-44
2021/03/28 01:26:21;;;;;;;0.00;0.00;;;15.40;60.80;;;;;;4195404;28;20129;-46
2021/03/28 01:28:49;;;;;;;0.00;0.00;;;15.40;60.90;;;;;;4196013;28;20533;-45
2021/03/28 01:31:28;;;;;;;0.00;0.00;;;15.40;60.80;;;;;;4195960;28;20102;-48
2021/03/28 01:33:54;;;;;;;0.00;0.00;;;15.50;60.60;;;;;;4195798;28;20083;-52
2021/03/28 01:36:23;;;;;;;0.00;0.00;;;15.50;60.50;;;;;;4195959;28;20548;-49
2021/03/28 01:38:57;;;;;;;0.00;0.00;;;15.60;60.60;;;;;;4188067;28;20051;-44
2021/03/28 01:41:25;;;;;;;0.65;0.40;;;15.60;60.50;;;;;;4195760;28;20494;-43
2021/03/28 01:43:54;;;;;;;0.20;0.13;;;15.70;60.30;;;;;;4192137;28;20521;-43
2021/03/28 01:46:30;;;;;;;0.00;0.00;;;15.70;60.20;;;;;;4179273;28;20060;-43
2021/03/28 01:48:54;;;;;;;0.00;0.00;;;15.70;60.10;;;;;;4183990;28;20127;-45
2021/03/28 01:51:36;;;;;;;0.65;0.65;;;15.80;59.80;;;;;;4195712;28;20131;-46
2021/03/28 01:54:04;;;;;;;0.00;0.00;;;16.00;59.50;;;;;;4179182;28;20049;-44
2021/03/28 01:56:32;;;;;;;0.00;0.00;;;16.10;59.30;;;;;;4178129;28;20430;-46
2021/03/28 01:59:18;;;;;;;0.00;0.00;;;16.00;59.10;;;;;;4180119;28;20064;-47
2021/03/28 02:01:46;;;;;;;0.00;0.00;;;16.10;59.20;;;;;;4195600;28;20055;-45
2021/03/28 02:04:17;;;;;;;0.00;0.00;;;16.10;59.10;;;;;;4194555;28;20556;-43
2021/03/28 02:06:52;;;;;;;0.47;0.47;;;16.10;59.00;;;;;;4195299;28;20040;-44
2021/03/28 02:09:25;;;;;;;0.20;0.20;;;16.10;59.80;;;;;;4195590;28;20052;-44
2021/03/28 02:12:00;;;;;;;0.00;0.00;;;16.10;59.10;;;;;;4195748;28;20079;-43
2021/03/28 02:14:48;;;;;;;0.15;0.15;;;16.00;59.20;;;;;;4195659;28;20056;-43
2021/03/28 02:17:23;;;;;;;15.10;1.55;;;16.00;59.50;;;;;;4195192;28;20131;-43
2021/03/28 02:19:59;;;;;;;0.00;0.00;;;15.90;59.60;;;;;;4195556;28;20053;-44
2021/03/28 02:22:26;;;;;;;0.30;0.30;;;15.80;59.70;;;;;;4195376;28;20053;-44
2021/03/28 02:24:56;;;;;;;0.00;0.00;;;15.80;59.90;;;;;;4195294;28;20052;-43
2021/03/28 02:27:26;;;;;;;0.00;0.00;;;15.80;60.00;;;;;;4195305;28;20067;-47
2021/03/28 02:29:56;;;;;;;0.98;0.65;;;15.80;60.10;;;;;;4195240;28;20045;-44
2021/03/28 02:32:43;;;;;;;0.00;0.00;;;15.80;60.20;;;;;;4195504;28;20060;-44
2021/03/28 02:35:13;;;;;;;0.57;0.57;;;15.80;60.30;;;;;;4195367;28;20135;-46
2021/03/28 02:37:54;;;;;;;0.90;0.88;;;15.70;60.30;;;;;;4195186;28;20132;-44
2021/03/28 02:40:22;;;;;;;0.00;0.00;;;15.70;60.70;;;;;;4198639;28;20102;-44
2021/03/28 02:42:59;;;;;;;0.00;0.00;;;15.70;61.40;;;;;;4198626;28;20090;-45
2021/03/28 02:45:24;;;;;;;0.00;0.00;;;15.80;60.30;;;;;;4198219;28;20095;-45
2021/03/28 02:48:22;;;;;;;0.00;0.00;;;15.90;60.20;;;;;;4198429;28;20132;-44
2021/03/28 02:51:19;;;;;;;0.35;0.35;;;15.80;60.00;;;;;;4196474;28;20083;-45
2021/03/28 02:54:17;;;;;;;0.00;0.00;;;15.80;60.10;;;;;;4181942;28;20136;-44
2021/03/28 02:56:52;;;;;;;24.73;1.02;;;15.80;60.20;;;;;;4186344;28;20052;-44
2021/03/28 02:59:27;;;;;;;0.00;0.00;;;15.90;59.90;;;;;;4198293;28;20056;-44
2021/03/28 03:02:36;;;;;;;33.13;1.00;;;16.00;59.80;;;;;;4197938;28;20049;-46
2021/03/28 03:05:27;;;;;;;0.00;0.00;;;16.00;59.80;;;;;;4179283;28;20049;-46
2021/03/28 03:08:07;;;;;;;0.00;0.00;;;16.00;59.80;;;;;;4197868;28;20053;-44
2021/03/28 03:10:47;;;;;;;0.98;0.98;;;16.00;59.70;;;;;;4198297;28;20058;-45
2021/03/28 03:13:14;;;;;;;0.93;0.85;;;16.00;59.80;;;;;;4197816;28;20048;-44
2021/03/28 03:15:40;;;;;;;1.30;1.20;;;15.90;59.80;;;;;;4197998;28;20425;-44
2021/03/28 03:18:54;;;;;;;0.00;0.00;;;15.90;59.90;;;;;;4198056;28;20076;-44
2021/03/28 03:22:00;;;;;;;0.00;0.00;;;15.80;60.10;;;;;;4197815;28;20048;-43
2021/03/28 03:24:37;;;;;;;0.00;0.00;;;15.70;60.30;;;;;;4197763;28;20051;-45
2021/03/28 03:27:34;;;;;;;0.00;0.00;;;15.80;60.20;;;;;;4197711;28;20052;-46
2021/03/28 03:30:14;;;;;;;0.63;0.63;;;16.00;59.60;;;;;;4197827;28;20056;-44
2021/03/28 03:33:21;;;;;;;0.05;0.05;;;16.20;59.20;;;;;;4197586;28;20049;-43
2021/03/28 03:35:57;;;;;;;0.00;0.00;;;16.20;59.00;;;;;;4197872;28;20060;-43
2021/03/28 03:38:41;;;;;;;0.08;0.08;;;16.20;59.00;;;;;;4181255;28;20052;-44
2021/03/28 03:41:15;;;;;;;0.00;0.00;;;16.20;59.10;;;;;;4181318;28;20577;-44
2021/03/28 03:43:57;;;;;;;0.50;0.50;;;16.30;59.00;;;;;;4181248;28;20045;-43
2021/03/28 03:46:35;;;;;;;0.25;0.25;;;16.40;58.70;;;;;;4181027;28;20131;-44
2021/03/28 03:49:08;;;;;;;0.03;0.03;;;16.40;58.30;;;;;;4180333;28;20075;-45
2021/03/28 03:51:52;;;;;;;0.00;0.00;;;16.50;58.30;;;;;;4184042;28;20703;-47
2021/03/28 03:54:27;;;;;;;0.00;0.00;;;16.50;58.30;;;;;;4197318;28;20056;-45
2021/03/28 03:57:00;;;;;;;0.00;0.00;;;16.60;58.20;;;;;;4197236;28;20056;-48
2021/03/28 03:59:35;;;;;;;4.40;1.75;;;16.60;57.90;;;;;;4197388;28;20165;-43
2021/03/28 04:02:05;;;;;;;0.40;0.40;;;16.60;57.90;;;;;;4196983;28;20513;-44
2021/03/28 04:04:39;;;;;;;0.00;0.00;;;16.60;58.10;;;;;;4197267;28;20518;-46
2021/03/28 04:07:23;;;;;;;0.00;0.00;;;16.50;58.00;;;;;;4197086;28;20067;-45
2021/03/28 04:09:59;;;;;;;0.00;0.00;;;16.50;58.80;;;;;;4197148;28;20049;-44
2021/03/28 04:12:35;;;;;;;0.00;0.00;;;16.40;58.40;;;;;;4197060;28;20542;-44
2021/03/28 04:15:32;;;;;;;0.00;0.00;;;16.30;58.80;;;;;;4197190;28;20116;-43
2021/03/28 04:18:14;;;;;;;10.52;0.93;;;16.40;58.50;;;;;;4194760;28;20063;-45
2021/03/28 04:20:48;;;;;;;0.20;0.13;;;16.60;58.00;;;;;;4197089;28;20082;-44
2021/03/28 04:23:30;;;;;;;0.10;0.10;;;16.70;57.70;;;;;;4180587;28;20500;-44
2021/03/28 04:26:06;;;;;;;0.63;0.63;;;16.70;57.60;;;;;;4180435;28;20081;-44
2021/03/28 04:28:49;;;;;;;0.00;0.00;;;16.60;57.70;;;;;;4180314;28;20102;-44
2021/03/28 04:31:43;;;;;;;0.25;0.25;;;16.60;57.90;;;;;;4196524;28;20141;-45
2021/03/28 04:34:13;;;;;;;0.00;0.00;;;16.50;58.20;;;;;;4196814;28;20056;-49
2021/03/28 04:36:37;;;;;;;0.00;0.00;;;16.40;58.40;;;;;;4196678;28;20045;-47
2021/03/28 04:39:29;;;;;;;0.05;0.05;;;16.40;58.40;;;;;;4196855;28;20044;-45
2021/03/28 04:42:29;;;;;;;0.40;0.40;;;16.40;58.30;;;;;;4196545;28;20056;-44
2021/03/28 04:45:38;;;;;;;0.35;0.35;;;16.40;58.40;;;;;;4196616;28;20063;-45
2021/03/28 04:48:31;;;;;;;0.00;0.00;;;16.30;58.50;;;;;;4171980;28;20059;-45
2021/03/28 04:51:22;;;;;;;0.32;0.32;;;16.20;58.70;;;;;;4159647;28;20445;-43
2021/03/28 04:54:22;;;;;;;0.00;0.00;;;16.10;59.00;;;;;;4193954;28;20056;-44
2021/03/28 04:57:03;;;;;;;0.00;0.00;;;16.10;59.30;;;;;;4196557;28;20052;-44
2021/03/28 05:00:07;;;;;;;0.17;0.17;;;16.10;59.40;;;;;;4196498;28;20171;-44
2021/03/28 05:02:50;;;;;;;0.10;0.10;;;16.20;59.00;;;;;;4196025;28;20056;-44
2021/03/28 05:05:36;;;;;;;3.50;0.57;;;16.40;58.70;;;;;;4179669;28;20087;-44
2021/03/28 05:08:34;;;;;;;0.10;0.10;;;16.40;58.40;;;;;;4179789;28;20407;-44
2021/03/28 05:11:29;;;;;;;0.10;0.10;;;16.60;58.20;;;;;;4183335;28;20060;-43
2021/03/28 05:14:20;;;;;;;0.10;0.10;;;16.80;57.60;;;;;;4196188;28;20567;-46
2021/03/28 05:17:15;;;;;;;0.15;0.15;;;16.80;57.70;;;;;;4196129;28;20059;-45
2021/03/28 05:19:58;;;;;;;0.65;0.52;;;16.80;57.40;;;;;;4194773;28;20136;-45
2021/03/28 05:23:14;;;;;;;0.65;0.65;;;16.70;57.70;;;;;;4194541;28;20133;-43
2021/03/28 05:26:04;;;;;;;0.00;0.00;;;16.60;57.90;;;;;;4196014;28;20079;-47
2021/03/28 05:28:58;;;;;;;0.40;0.40;;;16.50;58.90;;;;;;4195801;28;20052;-44
2021/03/28 05:31:54;;;;;;;0.20;0.20;;;16.60;58.00;;;;;;4195864;28;20053;-45
2021/03/28 05:34:53;;;;;;;0.15;0.15;;;16.70;57.80;;;;;;4195807;28;20058;-45
2021/03/28 05:37:55;;;;;;;0.00;0.00;;;16.60;57.70;;;;;;4195503;28;20139;-46
2021/03/28 05:40:33;;;;;;;0.00;0.00;;;16.60;57.90;;;;;;4195806;28;20491;-44
2021/03/28 05:43:23;;;;;;;0.00;0.00;;;16.50;58.00;;;;;;4195762;28;20546;-44
2021/03/28 05:45:59;;;;;;;0.25;0.25;;;16.40;58.30;;;;;;4195521;28;20052;-44
2021/03/28 05:49:02;;;;;;;0.30;0.30;;;16.40;58.40;;;;;;4195558;28;20063;-46
2021/03/28 05:51:44;;;;;;;0.00;0.00;;;16.50;58.20;;;;;;4195410;28;20065;-43
2021/03/28 05:55:01;;;;;;;0.30;0.30;;;16.60;58.20;;;;;;4194799;28;20059;-44
2021/03/28 05:58:13;;;;;;;0.00;0.00;;;16.60;58.40;;;;;;4194623;28;20120;-44
2021/03/28 06:00:56;;;;;;;0.20;0.20;;;16.70;58.20;;;;;;4195616;28;20048;-43
2021/03/28 06:03:54;;;;;;;0.00;0.00;;;16.70;58.00;;;;;;4195773;28;20049;-43
2021/03/28 06:06:53;;;;;;;0.00;0.00;;;16.70;58.10;;;;;;4195296;28;20083;-43
2021/03/28 06:10:21;;;;;;;0.00;0.00;;;16.60;58.10;;;;;;4195616;28;20135;-44
2021/03/28 06:13:08;;;;;;;0.00;0.00;;;16.60;58.40;;;;;;4185128;28;20056;-44
2021/03/28 06:16:03;;;;;;;0.52;0.52;;;16.70;58.50;;;;;;4194645;28;20052;-51
2021/03/28 06:18:59;;;;;;;0.00;0.00;;;16.80;58.20;;;;;;4178938;28;20141;-44
2021/03/28 06:22:03;;;;;;;0.90;0.57;;;16.80;57.90;;;;;;4178812;28;20053;-44
2021/03/28 06:25:03;;;;;;;0.25;0.25;;;16.80;57.90;;;;;;4126071;28;20930;-50
2021/03/28 06:28:09;;;;;;;0.20;0.20;;;16.70;58.00;;;;;;4178511;28;20049;-45
2021/03/28 06:31:18;;;;;;;0.47;0.47;;;16.60;58.00;;;;;;4126504;28;20507;-46
2021/03/28 06:34:25;;;;;;;1.23;1.17;;;16.60;58.20;;;;;;4184230;28;20076;-44
2021/03/28 06:37:30;;;;;;;0.00;0.00;;;16.50;58.30;;;;;;4169052;28;20479;-48
2021/03/28 06:40:04;;;;;;;0.10;0.10;;;16.40;58.40;;;;;;4195260;28;20106;-45
2021/03/28 06:43:03;;;;;;;0.00;0.00;;;16.30;58.60;;;;;;4195242;28;20048;-44
2021/03/28 06:46:16;;;;;;;0.13;0.13;;;16.40;58.60;;;;;;4195088;28;20102;-45
2021/03/28 06:49:12;;;;;;;0.00;0.00;;;16.50;58.20;;;;;;4127615;28;20125;-46
2021/03/28 06:51:43;;;;;;;0.10;0.10;;;16.60;57.90;;;;;;4127582;28;20057;-43
2021/03/28 06:54:34;;;;;;;0.57;0.57;;;16.80;57.70;;;;;;4178436;28;20063;-43
2021/03/28 06:57:49;;;;;;;0.63;0.43;;;16.90;57.10;;;;;;4194917;28;20056;-43
2021/03/28 07:00:37;;;;;;;0.15;0.15;;;17.10;56.20;;;;;;4194337;28;20048;-45
2021/03/28 07:03:37;;;;;;;0.10;0.10;;;17.00;55.70;;;;;;4187197;28;20052;-43
2021/03/28 07:06:14;;;;;;;2.90;1.55;;;16.90;57.00;;;;;;4194103;28;20063;-45
2021/03/28 07:08:56;;;;;;;0.35;0.35;;;16.80;57.20;;;;;;4190202;28;20522;-43
2021/03/28 07:11:31;;;;;;;0.00;0.00;;;16.70;57.90;;;;;;4195014;28;20094;-44
2021/03/28 07:14:44;;;;;;;0.00;0.00;;;16.50;58.10;;;;;;4195118;28;20146;-44
2021/03/28 07:17:35;;;;;;;0.00;0.00;;;16.50;57.60;;;;;;4157491;28;20044;-45
2021/03/28 07:20:21;;;;;;;0.85;0.85;;;16.40;57.50;;;;;;4183819;28;20053;-43
2021/03/28 07:22:59;;;;;;;0.45;0.45;;;16.40;56.80;;;;;;4178452;28;20107;-43
2021/03/28 07:25:47;;;;;;;0.75;0.75;;;16.30;57.40;;;;;;4197462;28;20572;-46
2021/03/28 07:28:51;;;;;;;0.00;0.00;;;16.20;57.00;;;;;;4196689;28;20079;-43
2021/03/28 07:31:37;;;;;;;0.10;0.10;;;16.20;57.60;;;;;;4197542;28;20055;-43
2021/03/28 07:34:37;;;;;;;0.00;0.00;;;16.10;57.90;;;;;;4197602;28;20069;-43
2021/03/28 07:37:47;;;;;;;0.20;0.20;;;16.10;58.20;;;;;;4196576;28;20102;-43
2021/03/28 07:40:31;;;;;;;0.00;0.00;;;16.00;58.50;;;;;;4146308;28;20053;-44
2021/03/28 07:43:09;;;;;;;0.10;0.10;;;16.00;58.80;;;;;;4197501;28;20060;-43
2021/03/28 07:45:57;;;;;;;0.20;0.20;;;16.00;58.90;;;;;;4197595;28;20053;-43
2021/03/28 07:48:54;;;;;;;0.00;0.00;;;16.10;58.80;;;;;;4197589;28;20052;-43
2021/03/28 07:51:43;;;;;;;0.00;0.00;;;16.40;58.40;;;;;;4181033;28;20410;-43
2021/03/28 07:54:56;;;;;;;0.00;0.00;;;16.50;58.20;;;;;;4180978;28;20044;-43
2021/03/28 07:57:40;;;;;;;0.55;0.55;;;16.50;58.20;;;;;;4180866;28;20045;-43
2021/03/28 08:00:21;;;;;;;0.00;0.00;;;16.50;58.20;;;;;;4192280;28;20485;-44
2021/03/28 08:03:12;;;;;;;0.00;0.00;;;16.40;58.20;;;;;;4181041;28;20158;-43
2021/03/28 08:05:52;;;;;;;0.00;0.00;;;16.40;58.50;;;;;;4192100;28;20059;-43
2021/03/28 08:08:30;;;;;;;0.00;0.00;;;16.30;58.50;;;;;;4197205;28;20064;-43
2021/03/28 08:11:10;;;;;;;0.28;0.25;;;16.30;59.00;;;;;;4197086;28;20056;-44
2021/03/28 08:13:50;;;;;;;0.45;0.28;;;16.30;59.20;;;;;;4185833;28;20115;-45
2021/03/28 08:16:28;;;;;;;1.60;1.17;;;16.20;59.30;;;;;;4196249;28;20057;-43
2021/03/28 08:19:09;;;;;;;0.00;0.00;;;16.20;59.30;;;;;;4194758;28;20373;-44
2021/03/28 08:21:38;;;;;;;0.13;0.13;;;16.10;59.50;;;;;;4196884;28;20048;-43
2021/03/28 08:24:26;;;;;;;1.42;0.65;;;16.10;59.60;;;;;;4196983;28;20048;-43
2021/03/28 08:27:45;;;;;;;0.00;0.00;;;16.00;59.70;;;;;;4196909;28;20059;-45
2021/03/28 08:30:25;;;;;;;0.00;0.00;;;15.90;60.00;;;;;;4195989;28;20490;-43
2021/03/28 08:33:11;;;;;;;0.00;0.00;;;15.90;60.30;;;;;;4180306;28;20136;-46
2021/03/28 08:35:57;;;;;;;0.28;0.28;;;15.90;60.40;;;;;;4192372;28;20075;-48
2021/03/28 08:38:43;;;;;;;0.35;0.35;;;15.80;60.60;;;;;;4196697;28;20135;-50
2021/03/28 08:41:27;;;;;;;0.00;0.00;;;16.20;60.00;;;;;;4196746;28;20049;-43
2021/03/28 08:44:21;;;;;;;1.00;0.85;;;17.10;57.70;;;;;;4195749;28;20126;-43
2021/03/28 08:47:20;;;;;;;0.00;0.00;;;18.00;55.20;;;;;;4196707;28;20056;-44
2021/03/28 08:49:49;;;;;;;0.10;0.10;;;18.90;53.10;;;;;;4190209;28;20141;-45
2021/03/28 08:52:35;;;;;;;1.25;1.15;;;20.00;51.00;;;;;;4196415;28;20558;-43
2021/03/28 08:55:12;;;;;;;0.00;0.00;;;21.00;48.70;;;;;;4196352;28;20060;-43
2021/03/28 08:57:39;;;;;;;0.00;0.00;;;21.90;46.70;;;;;;4196259;28;20112;-45
2021/03/28 09:00:16;;;;;;;0.00;0.00;;;22.30;45.50;;;;;;4196126;28;20064;-43
2021/03/28 09:02:55;;;;;;;0.57;0.57;;;22.70;44.80;;;;;;4196213;28;20086;-44
2021/03/28 09:05:24;;;;;;;0.00;0.00;;;22.90;44.40;;;;;;4195760;28;20227;-43
2021/03/28 09:07:59;;;;;;;0.00;0.00;;;22.80;44.60;;;;;;4196189;28;20059;-45
2021/03/28 09:10:35;;;;;;;0.32;0.32;;;22.40;45.20;;;;;;4195793;28;20426;-43
2021/03/28 09:13:13;;;;;;;0.00;0.00;;;22.10;46.10;;;;;;4196120;28;20051;-46
2021/03/28 09:15:49;;;;;;;0.57;0.57;;;21.70;46.90;;;;;;4196020;28;20049;-44
2021/03/28 09:18:22;;;;;;;0.00;0.00;;;21.40;47.70;;;;;;4196147;28;20517;-44
2021/03/28 09:20:53;;;;;;;0.00;0.00;;;20.90;49.40;;;;;;4195136;28;20521;-45
2021/03/28 09:23:38;;;;;;;0.30;0.30;;;20.70;49.50;;;;;;4195387;28;20514;-44
2021/03/28 09:26:01;;;;;;;0.22;0.22;;;20.60;49.70;;;;;;4195919;28;20502;-45
2021/03/28 09:28:30;;;;;;;0.45;0.45;;;20.50;49.90;;;;;;4192074;28;20487;-44
2021/03/28 09:30:58;;;;;;;0.00;0.00;;;20.60;50.00;;;;;;4179485;28;20491;-43
2021/03/28 09:33:35;;;;;;;0.00;0.00;;;20.40;49.80;;;;;;4179389;28;20415;-44
2021/03/28 09:36:26;;;;;;;0.08;0.08;;;20.30;50.10;;;;;;4195308;28;20818;-49
2021/03/28 09:39:35;;;;;;;0.40;0.40;;;20.30;49.90;;;;;;4195444;28;20052;-44
2021/03/28 09:42:31;;;;;;;0.00;0.00;;;20.30;50.00;;;;;;4195938;28;20048;-44
2021/03/28 09:45:46;;;;;;;0.00;0.00;;;20.40;49.70;;;;;;4195253;28;20415;-44
2021/03/28 09:48:42;;;;;;;0.25;0.25;;;20.50;49.50;;;;;;4126055;28;20133;-43
2021/03/28 09:51:20;;;;;;;0.00;0.00;;;20.50;49.40;;;;;;4194943;28;20052;-48
2021/03/28 09:54:06;;;;;;;0.00;0.00;;;20.50;49.20;;;;;;4195162;28;20045;-43
2021/03/28 09:57:06;;;;;;;0.00;0.00;;;20.60;49.20;;;;;;4194976;28;20048;-45
2021/03/28 09:59:36;;;;;;;0.00;0.00;;;20.70;49.30;;;;;;4157431;28;20103;-44
2021/03/28 10:02:19;;;;;;;0.00;0.00;;;20.60;49.10;;;;;;4195744;28;20501;-44
2021/03/28 10:04:59;;;;;;;0.00;0.00;;;20.60;49.10;;;;;;4187426;28;20049;-44
2021/03/28 10:07:26;;;;;;;0.43;0.43;;;20.60;49.30;;;;;;4195665;28;20139;-43
2021/03/28 10:10:02;;;;;;;0.00;0.00;;;20.50;49.30;;;;;;4195275;28;20051;-44
2021/03/28 10:12:29;;;;;;;0.00;0.00;;;20.60;49.10;;;;;;4195567;28;20048;-43
2021/03/28 10:15:03;;;;;;;0.00;0.00;;;20.70;49.00;;;;;;4195353;28;20479;-45
2021/03/28 10:17:38;;;;;;;0.00;0.00;;;20.70;48.70;;;;;;4195550;28;20049;-43
2021/03/28 10:20:10;;;;;;;0.90;0.90;;;20.70;48.80;;;;;;4195212;28;20127;-44
2021/03/28 10:22:44;;;;;;;0.03;0.03;;;20.50;49.00;;;;;;4195516;28;20132;-43
2021/03/28 10:25:38;;;;;;;0.00;0.00;;;20.40;49.20;;;;;;4178997;28;20061;-43
2021/03/28 10:28:31;;;;;;;0.30;0.30;;;20.30;49.70;;;;;;4178863;28;20484;-44
2021/03/28 10:31:12;;;;;;;0.20;0.20;;;20.20;50.10;;;;;;4195103;28;20467;-43
2021/03/28 10:33:47;;;;;;;0.90;0.90;;;20.00;50.30;;;;;;4194754;28;20518;-43
2021/03/28 10:36:25;;;;;;;0.47;0.47;;;19.90;50.30;;;;;;4184586;28;20072;-43
2021/03/28 10:39:10;;;;;;;1.23;1.13;;;19.80;50.50;;;;;;4195209;28;20103;-44
2021/03/28 10:41:44;;;;;;;0.00;0.00;;;19.60;51.00;;;;;;4173086;28;20057;-43
2021/03/28 10:44:45;;;;;;;1.00;0.70;;;19.60;51.40;;;;;;4180462;28;20053;-44
2021/03/28 10:47:44;;;;;;;0.30;0.30;;;19.60;51.30;;;;;;4195378;28;20044;-43
2021/03/28 10:50:59;;;;;;;0.00;0.00;;;19.70;51.50;;;;;;4194390;28;20052;-44
2021/03/28 10:53:43;;;;;;;0.55;0.55;;;19.70;51.40;;;;;;4127672;28;20053;-46
2021/03/28 10:56:47;;;;;;;0.00;0.00;;;19.80;51.00;;;;;;4127265;28;20054;-43
2021/03/28 10:59:44;;;;;;;0.00;0.00;;;19.90;50.90;;;;;;4195459;28;20161;-46
2021/03/28 11:02:49;;;;;;;0.00;0.00;;;20.00;50.70;;;;;;4198087;28;20049;-47
2021/03/28 11:06:10;;;;;;;0.10;0.10;;;20.10;50.70;;;;;;4195149;28;20494;-44
2021/03/28 11:09:02;;;;;;;0.00;0.00;;;20.10;50.20;;;;;;4104636;28;20069;-48
2021/03/28 11:11:51;;;;;;;0.00;0.00;;;20.10;50.50;;;;;;4130678;28;20460;-43
2021/03/28 11:14:43;;;;;;;0.00;0.00;;;20.10;50.70;;;;;;4181947;28;20096;-44
2021/03/28 11:17:36;;;;;;;0.15;0.15;;;20.20;50.40;;;;;;4181580;28;20057;-44
2021/03/28 11:20:20;;;;;;;0.30;0.30;;;20.30;50.40;;;;;;4193594;28;20053;-43
2021/03/28 11:22:48;;;;;;;0.00;0.00;;;20.30;50.20;;;;;;4197856;28;20453;-43
2021/03/28 11:25:24;;;;;;;0.25;0.25;;;20.30;50.10;;;;;;4197780;28;20109;-44
2021/03/28 11:28:31;;;;;;;0.00;0.00;;;20.20;50.50;;;;;;4197983;28;20045;-46
2021/03/28 11:30:54;;;;;;;0.57;0.57;;;20.20;50.50;;;;;;4197895;28;20537;-43
2021/03/28 11:33:26;;;;;;;0.00;0.00;;;20.30;50.40;;;;;;4197141;28;20045;-43
2021/03/28 11:36:07;;;;;;;0.00;0.00;;;20.40;50.50;;;;;;4193606;28;20110;-44
2021/03/28 11:38:47;;;;;;;0.47;0.47;;;20.40;50.10;;;;;;4181336;28;20057;-43
2021/03/28 11:41:59;;;;;;;0.00;0.00;;;20.40;50.50;;;;;;4181141;28;20053;-43
2021/03/28 11:44:30;;;;;;;;;;;20.20;50.60;;;;;;4181733;28;20506;-43
2021/03/28 11:46:56;;;;;;;14.93;1.45;;;20.20;50.70;;;;;;4196365;28;19924;-43
2021/03/28 11:49:21;;;;;;;0.15;0.15;;;20.10;51.10;;;;;;4197490;28;20072;-43
2021/03/28 11:52:31;;;;;;;0.00;0.00;;;19.90;51.60;;;;;;4197635;28;20137;-43
2021/03/28 11:55:12;;;;;;;1.23;1.17;;;19.80;51.70;;;;;;4197313;28;20120;-43
2021/03/28 11:57:34;;;;;;;0.00;0.00;;;19.90;51.80;;;;;;4196852;28;20121;-44
2021/03/28 12:00:11;;;;;;;0.00;0.00;;;19.90;51.80;;;;;;4197568;28;20087;-43
2021/03/28 12:02:33;;;;;;;0.10;0.10;;;20.00;51.70;;;;;;4195694;28;20128;-43
2021/03/28 12:05:28;;;;;;;0.00;0.00;;;20.00;51.80;;;;;;4197106;28;20518;-43
2021/03/28 12:08:06;;;;;;;0.00;0.00;;;20.00;51.80;;;;;;4197129;28;20056;-44
2021/03/28 12:10:35;;;;;;;1.73;1.17;;;20.10;51.90;;;;;;4196879;28;20048;-43
2021/03/28 12:13:20;;;;;;;0.00;0.00;;;20.10;51.80;;;;;;4196956;28;20053;-43
2021/03/28 12:16:01;;;;;;;0.00;0.00;;;20.20;51.60;;;;;;4197170;28;20135;-42
2021/03/28 12:18:46;;;;;;;0.00;0.00;;;20.30;51.30;;;;;;4196891;28;20052;-45
2021/03/28 12:21:38;;;;;;;0.00;0.00;;;20.30;51.30;;;;;;4180840;28;20115;-45
2021/03/28 12:24:03;;;;;;;0.00;0.00;;;20.30;51.40;;;;;;4197102;28;20135;-47
2021/03/28 12:26:28;;;;;;;0.95;0.95;;;20.20;51.60;;;;;;4197043;28;20075;-46
2021/03/28 12:28:52;;;;;;;0.00;0.00;;;20.20;51.60;;;;;;4195680;28;20049;-44
2021/03/28 12:31:35;;;;;;;0.10;0.10;;;20.30;51.40;;;;;;4197022;28;20118;-45
2021/03/28 12:34:15;;;;;;;0.00;0.00;;;20.30;51.60;;;;;;4196775;28;20049;-48
2021/03/28 12:36:54;;;;;;;0.75;0.75;;;20.20;51.90;;;;;;4196862;28;20067;-44
2021/03/28 12:39:19;;;;;;;0.08;0.08;;;20.10;52.00;;;;;;4180239;28;20110;-44
2021/03/28 12:42:19;;;;;;;0.00;0.00;;;20.00;52.00;;;;;;4186254;28;20040;-45
2021/03/28 12:44:42;;;;;;;0.03;0.03;;;20.00;52.40;;;;;;4196983;28;20064;-44
2021/03/28 12:47:16;;;;;;;0.00;0.00;;;19.80;52.60;;;;;;4196857;28;20060;-43
2021/03/28 12:49:47;;;;;;;1.45;0.90;;;19.70;53.10;;;;;;4196715;28;20577;-43
2021/03/28 12:52:24;;;;;;;0.00;0.00;;;19.70;53.40;;;;;;4196534;28;20127;-44
2021/03/28 12:55:14;;;;;;;0.22;0.22;;;19.70;53.20;;;;;;4196692;28;20521;-48
2021/03/28 12:57:38;;;;;;;0.00;0.00;;;19.80;53.20;;;;;;4196599;28;20392;-43
2021/03/28 13:00:01;;;;;;;0.52;0.52;;;19.80;52.90;;;;;;4196054;28;20048;-45
2021/03/28 13:02:28;;;;;;;0.10;0.10;;;19.80;52.90;;;;;;4196801;28;20059;-46
2021/03/28 13:04:53;;;;;;;0.00;0.00;;;19.90;52.90;;;;;;4196403;28;20053;-48
2021/03/28 13:07:39;;;;;;;0.00;0.00;;;19.90;53.00;;;;;;4196418;28;20074;-49
2021/03/28 13:10:01;;;;;;;0.00;0.00;;;20.00;52.60;;;;;;4196379;28;20060;-44
2021/03/28 13:12:25;;;;;;;0.00;0.00;;;20.10;52.60;;;;;;4196020;28;20136;-43
2021/03/28 13:14:49;;;;;;;0.20;0.20;;;20.10;52.40;;;;;;4196052;28;20048;-46
2021/03/28 13:17:33;;;;;;;0.00;0.00;;;20.20;52.40;;;;;;4195746;28;20494;-45
2021/03/28 13:20:12;;;;;;;0.00;0.00;;;20.20;52.50;;;;;;4195877;28;20049;-49
2021/03/28 13:22:37;;;;;;;0.13;0.13;;;20.10;52.60;;;;;;4195138;28;20049;-44
2021/03/28 13:25:08;;;;;;;0.10;0.10;;;20.00;53.10;;;;;;4196174;28;20700;-46
2021/03/28 13:27:29;;;;;;;0.00;0.00;;;19.80;53.40;;;;;;4195618;28;20130;-43
2021/03/28 13:29:53;;;;;;;0.00;0.00;;;19.90;53.20;;;;;;4196112;28;20644;-44
2021/03/28 13:32:21;;;;;;;0.40;0.40;;;20.00;53.00;;;;;;4196059;28;20056;-44
2021/03/28 13:34:55;;;;;;;0.00;0.00;;;20.00;53.20;;;;;;4195525;28;20056;-44
2021/03/28 13:37:39;;;;;;;0.00;0.00;;;20.00;53.20;;;;;;4195917;28;20473;-44
2021/03/28 13:40:04;;;;;;;0.00;0.00;;;20.00;53.20;;;;;;4195984;28;20131;-45
2021/03/28 13:42:34;;;;;;;0.00;0.00;;;19.90;53.30;;;;;;4195940;28;20052;-43
2021/03/28 13:45:00;;;;;;;0.00;0.00;;;19.80;53.70;;;;;;4194498;28;20511;-44
2021/03/28 13:47:49;;;;;;;0.00;0.00;;;19.70;54.00;;;;;;4195711;28;20388;-43
2021/03/28 13:50:42;;;;;;;0.45;0.45;;;19.70;54.00;;;;;;4168823;28;20053;-43
2021/03/28 13:53:18;;;;;;;0.20;0.20;;;19.70;54.20;;;;;;4187063;28;20048;-43
2021/03/28 13:55:42;;;;;;;0.00;0.00;;;19.70;54.20;;;;;;4193602;28;20427;-42
2021/03/28 13:58:18;;;;;;;0.00;0.00;;;19.80;54.00;;;;;;4195446;28;20060;-43
2021/03/28 14:00:41;;;;;;;0.10;0.10;;;19.80;53.90;;;;;;4195615;28;20052;-46
2021/03/28 14:03:17;;;;;;;0.00;0.00;;;19.70;53.90;;;;;;4195465;28;20475;-43
2021/03/28 14:05:41;;;;;;;0.80;0.80;;;19.60;54.10;;;;;;4195260;28;20049;-43